Time;durP1;ratioP1;P1;durP2;ratioP2;P2;SDS_P1;SDS_P2;PMS_P1;PMS_P2;Temp;Humidity;BMP_temperature;BMP_pressure;BME280_temperature;BME280_humidity;BME280_pressure;Samples;Min_cycle;Max_cycle;Signal;HPM_P1;HPM_P2
2021/12/19 00:00:09;;;;;;;6.28;1.13;;;7.70;99.90;;;;;;4863635;29;20053;-84
2021/12/19 00:02:47;;;;;;;;;;;7.70;99.90;;;;;;4864379;29;20045;-84
2021/12/19 00:10:23;;;;;;;3.75;0.73;;;7.70;99.90;;;;;;4880343;29;20064;-84
2021/12/19 00:12:51;;;;;;;3.25;0.52;;;7.60;99.90;;;;;;4863503;29;20053;-84
2021/12/19 00:15:16;;;;;;;5.38;0.73;;;7.70;99.90;;;;;;4863674;29;20052;-83
2021/12/19 00:17:42;;;;;;;4.75;0.60;;;7.70;99.90;;;;;;4863249;29;20385;-84
2021/12/19 00:20:08;;;;;;;3.72;0.80;;;7.60;99.90;;;;;;4863295;29;20482;-84
2021/12/19 00:22:34;;;;;;;4.40;0.50;;;7.60;99.90;;;;;;4863333;29;20056;-84
2021/12/19 00:25:00;;;;;;;11.00;1.98;;;7.50;99.90;;;;;;4880015;29;20063;-84
2021/12/19 00:27:25;;;;;;;9.02;1.00;;;7.50;99.90;;;;;;4880029;29;20052;-84
2021/12/19 00:29:51;;;;;;;7.60;0.60;;;7.60;99.90;;;;;;4863239;29;20055;-84
2021/12/19 00:32:17;;;;;;;6.50;0.70;;;7.50;99.90;;;;;;4863143;29;20127;-84
2021/12/19 00:34:42;;;;;;;6.40;0.85;;;7.60;99.90;;;;;;4863413;29;20053;-84
2021/12/19 00:37:08;;;;;;;8.63;0.80;;;7.60;99.90;;;;;;4863133;29;20401;-84
2021/12/19 00:39:34;;;;;;;3.25;0.40;;;7.60;99.90;;;;;;4879953;29;20056;-85
2021/12/19 00:41:59;;;;;;;3.35;0.57;;;7.50;99.90;;;;;;4863198;29;20138;-84
2021/12/19 00:44:26;;;;;;;3.67;0.50;;;7.50;99.90;;;;;;4866100;29;20049;-84
2021/12/19 00:47:04;;;;;;;7.75;1.27;;;7.60;99.90;;;;;;4867077;29;20561;-85
2021/12/19 00:49:30;;;;;;;2.58;0.85;;;7.60;99.90;;;;;;4867261;29;20065;-86
2021/12/19 00:51:56;;;;;;;3.90;0.50;;;7.50;99.90;;;;;;4866933;29;20057;-85
2021/12/19 00:54:22;;;;;;;8.40;0.85;;;7.60;99.90;;;;;;4866825;29;20057;-86
2021/12/19 00:56:48;;;;;;;8.35;1.00;;;7.60;99.90;;;;;;4866620;29;20152;-83
2021/12/19 00:59:16;;;;;;;7.32;0.70;;;7.60;99.90;;;;;;4883504;29;20470;-83
2021/12/19 01:01:43;;;;;;;7.88;1.25;;;7.60;99.90;;;;;;4866609;29;20045;-83
2021/12/19 01:04:13;;;;;;;4.28;0.45;;;7.60;99.90;;;;;;4866568;29;20104;-83
2021/12/19 01:06:41;;;;;;;3.58;0.40;;;7.60;99.90;;;;;;4866510;29;20405;-83
2021/12/19 01:09:08;;;;;;;5.30;0.73;;;7.60;99.90;;;;;;4866927;29;20136;-83
2021/12/19 01:11:35;;;;;;;3.72;1.60;;;7.50;99.90;;;;;;4866544;29;20496;-83
2021/12/19 01:14:02;;;;;;;4.75;0.60;;;7.50;99.90;;;;;;4866335;29;20057;-83
2021/12/19 01:16:28;;;;;;;4.45;0.38;;;7.50;99.90;;;;;;4866400;29;20041;-83
2021/12/19 01:18:54;;;;;;;4.55;0.65;;;7.50;99.90;;;;;;4866338;29;20059;-83
2021/12/19 01:21:20;;;;;;;6.38;0.52;;;7.50;99.90;;;;;;4866607;29;20057;-83
2021/12/19 01:23:46;;;;;;;7.03;0.52;;;7.40;99.90;;;;;;4883026;29;20494;-83
2021/12/19 01:26:12;;;;;;;7.85;0.80;;;7.40;99.90;;;;;;4866305;29;20053;-84
2021/12/19 01:28:38;;;;;;;4.38;0.98;;;7.40;99.90;;;;;;4866425;29;20076;-83
2021/12/19 01:31:04;;;;;;;5.90;0.40;;;7.40;99.90;;;;;;4866408;29;20060;-84
2021/12/19 01:33:30;;;;;;;8.13;0.70;;;7.30;99.90;;;;;;4866357;29;20065;-84
2021/12/19 01:35:56;;;;;;;2.97;0.40;;;7.40;99.90;;;;;;4882912;29;20041;-83
2021/12/19 01:38:22;;;;;;;9.73;0.55;;;7.30;99.90;;;;;;4882859;29;20493;-83
2021/12/19 01:40:48;;;;;;;6.68;0.55;;;7.30;99.90;;;;;;4866041;29;20074;-83
2021/12/19 01:43:20;;;;;;;0.82;0.20;;;7.30;99.90;;;;;;4866010;29;20057;-83
2021/12/19 01:45:46;;;;;;;3.33;0.35;;;7.40;99.90;;;;;;4866101;29;20100;-83
2021/12/19 01:48:13;;;;;;;2.67;0.38;;;7.30;99.90;;;;;;4865892;29;20056;-83
2021/12/19 01:50:41;;;;;;;6.82;0.60;;;7.30;99.90;;;;;;4882656;29;20048;-83
2021/12/19 01:53:09;;;;;;;5.35;0.98;;;7.30;99.90;;;;;;4882572;29;20078;-83
2021/12/19 01:55:35;;;;;;;3.70;0.40;;;7.30;99.90;;;;;;4865858;29;20132;-83
2021/12/19 01:58:01;;;;;;;9.63;0.80;;;7.30;99.90;;;;;;4865898;29;20061;-83
2021/12/19 02:00:33;;;;;;;4.13;0.65;;;7.30;99.90;;;;;;4865886;29;20120;-84
2021/12/19 02:02:59;;;;;;;5.22;0.43;;;7.30;99.90;;;;;;4882510;29;20056;-83
2021/12/19 02:05:27;;;;;;;6.47;0.55;;;7.30;99.90;;;;;;4882329;29;20128;-83
2021/12/19 02:07:54;;;;;;;3.13;0.30;;;7.30;99.90;;;;;;4882108;29;20136;-83
2021/12/19 02:10:22;;;;;;;10.77;0.75;;;7.30;99.90;;;;;;4865371;29;20056;-83
2021/12/19 02:12:49;;;;;;;6.00;0.32;;;7.20;99.90;;;;;;4865377;29;20052;-84
2021/12/19 02:15:21;;;;;;;4.82;0.57;;;7.20;99.90;;;;;;4882160;29;20152;-83
2021/12/19 02:17:49;;;;;;;6.00;0.50;;;7.20;99.90;;;;;;4882251;29;20057;-83
2021/12/19 02:20:17;;;;;;;6.25;0.60;;;7.20;99.90;;;;;;4865654;29;20057;-83
2021/12/19 02:22:43;;;;;;;5.10;0.70;;;7.20;99.90;;;;;;4881870;29;20482;-83
2021/12/19 02:25:10;;;;;;;5.65;0.60;;;7.20;99.90;;;;;;4881968;29;20045;-83
2021/12/19 02:27:36;;;;;;;8.20;0.82;;;7.20;99.90;;;;;;4865493;29;20391;-83
2021/12/19 02:30:05;;;;;;;5.82;0.75;;;7.20;99.90;;;;;;4881971;29;20041;-83
2021/12/19 02:32:31;;;;;;;5.35;0.30;;;7.20;99.90;;;;;;4865166;29;20402;-83
2021/12/19 02:35:00;;;;;;;3.85;0.73;;;7.30;99.90;;;;;;4865351;29;20571;-83
2021/12/19 02:48:13;;;;;;;2.00;0.55;;;7.20;99.90;;;;;;4881743;29;20109;-83
2021/12/19 02:50:50;;;;;;;3.00;0.30;;;7.20;99.90;;;;;;4881693;29;20059;-83
2021/12/19 02:53:25;;;;;;;3.08;0.43;;;7.20;99.90;;;;;;4865098;29;20059;-83
2021/12/19 02:55:51;;;;;;;4.18;0.90;;;7.20;99.90;;;;;;4864776;29;20060;-83
2021/12/19 02:58:16;;;;;;;5.90;0.50;;;7.20;99.90;;;;;;4881469;29;20037;-83
2021/12/19 03:00:42;;;;;;;3.78;0.77;;;7.20;99.90;;;;;;4881694;29;20056;-83
2021/12/19 03:03:08;;;;;;;3.15;0.63;;;7.20;99.90;;;;;;4864546;29;20396;-83
2021/12/19 03:05:34;;;;;;;2.47;0.43;;;7.20;99.90;;;;;;4864072;29;20067;-83
2021/12/19 03:08:03;;;;;;;8.57;0.52;;;7.20;99.90;;;;;;4864338;29;20461;-83
2021/12/19 03:13:37;;;;;;;8.00;0.60;;;7.20;99.90;;;;;;4864569;29;20387;-82
2021/12/19 03:18:49;;;;;;;6.05;0.98;;;7.20;99.90;;;;;;4881121;29;20057;-83
2021/12/19 03:21:17;;;;;;;6.53;1.00;;;7.20;99.90;;;;;;4880824;29;20486;-82
2021/12/19 03:23:43;;;;;;;8.85;1.10;;;7.20;99.90;;;;;;4864335;29;20056;-83
2021/12/19 03:26:09;;;;;;;9.32;1.33;;;7.20;99.90;;;;;;4864640;29;20037;-83
2021/12/19 03:28:35;;;;;;;9.00;2.35;;;7.20;99.90;;;;;;4864214;29;20405;-83
2021/12/19 03:31:02;;;;;;;21.58;2.15;;;7.20;99.90;;;;;;4864148;29;20041;-83
2021/12/19 03:33:28;;;;;;;5.63;2.20;;;7.20;99.90;;;;;;4864074;29;20057;-83
2021/12/19 03:35:54;;;;;;;8.45;1.90;;;7.20;99.90;;;;;;4864200;29;20056;-83
2021/12/19 03:38:20;;;;;;;11.23;1.85;;;7.20;99.90;;;;;;4881042;29;20442;-82
2021/12/19 03:40:53;;;;;;;10.05;2.58;;;7.30;99.90;;;;;;4864214;29;20053;-82
2021/12/19 03:43:21;;;;;;;9.88;2.70;;;7.30;99.90;;;;;;4863991;29;20060;-83
2021/12/19 03:45:47;;;;;;;12.82;1.95;;;7.40;99.90;;;;;;4863912;29;20059;-83
2021/12/19 03:48:16;;;;;;;24.08;4.45;;;7.30;99.90;;;;;;4863774;29;20049;-83
2021/12/19 03:50:44;;;;;;;18.55;3.78;;;7.30;99.90;;;;;;4864031;29;20088;-83
2021/12/19 03:53:11;;;;;;;20.67;2.92;;;7.30;99.90;;;;;;4863944;29;20048;-83
2021/12/19 03:55:36;;;;;;;19.73;2.80;;;7.40;99.90;;;;;;4863775;29;20489;-83
2021/12/19 03:58:03;;;;;;;13.15;2.40;;;7.30;99.90;;;;;;4863725;29;20126;-83
2021/12/19 04:00:31;;;;;;;17.90;3.13;;;7.30;99.90;;;;;;4863722;29;20041;-82
2021/12/19 04:03:00;;;;;;;18.33;3.60;;;7.30;99.90;;;;;;4863806;29;20108;-83
2021/12/19 04:05:27;;;;;;;18.35;4.43;;;7.40;99.90;;;;;;4863384;29;20452;-83
2021/12/19 04:07:54;;;;;;;16.08;4.40;;;7.40;99.90;;;;;;4860372;29;20052;-83
2021/12/19 04:10:22;;;;;;;15.05;4.70;;;7.40;99.90;;;;;;4860496;29;20140;-83
2021/12/19 04:12:51;;;;;;;16.02;4.38;;;7.40;99.90;;;;;;4860418;29;20056;-83
2021/12/19 04:15:17;;;;;;;13.07;3.53;;;7.50;99.90;;;;;;4862119;29;20049;-82
2021/12/19 04:17:42;;;;;;;14.80;4.10;;;7.50;99.90;;;;;;4861049;29;20101;-83
2021/12/19 04:20:11;;;;;;;15.43;4.40;;;7.50;99.90;;;;;;4860301;29;20084;-83
2021/12/19 04:22:37;;;;;;;12.20;3.80;;;7.40;99.90;;;;;;4860575;29;20160;-83
2021/12/19 04:25:03;;;;;;;19.95;4.70;;;7.40;99.90;;;;;;4860239;29;20624;-83
2021/12/19 04:27:29;;;;;;;23.10;6.60;;;7.30;99.90;;;;;;4860256;29;20049;-83
2021/12/19 04:29:55;;;;;;;19.63;5.65;;;7.40;99.90;;;;;;4861323;29;20490;-83
2021/12/19 04:32:27;;;;;;;19.90;6.35;;;7.40;99.90;;;;;;4860382;29;20054;-83
2021/12/19 04:34:53;;;;;;;23.90;6.03;;;7.40;99.90;;;;;;4860210;29;20058;-83
2021/12/19 04:37:49;;;;;;;24.23;6.32;;;7.40;99.90;;;;;;4860458;29;20101;-83
2021/12/19 04:40:13;;;;;;;20.33;6.68;;;7.40;99.90;;;;;;4861038;29;20064;-83
2021/12/19 04:53:27;;;;;;;13.45;4.15;;;7.50;99.90;;;;;;4859968;29;20057;-83
2021/12/19 05:04:03;;;;;;;12.30;3.75;;;7.50;99.90;;;;;;4860027;29;20057;-83
2021/12/19 05:14:52;;;;;;;12.35;3.38;;;7.50;99.90;;;;;;4860097;29;20058;-83
2021/12/19 05:17:23;;;;;;;22.77;3.63;;;7.60;99.90;;;;;;4860161;29;20057;-83
2021/12/19 05:20:11;;;;;;;12.98;3.53;;;7.60;99.90;;;;;;4859909;29;20052;-83
2021/12/19 05:22:41;;;;;;;15.13;5.22;;;7.50;99.90;;;;;;4859785;29;20458;-83
2021/12/19 05:25:14;;;;;;;17.48;4.47;;;7.50;99.90;;;;;;4859846;29;20045;-83
2021/12/19 05:27:44;;;;;;;23.63;4.68;;;7.50;99.90;;;;;;4859813;29;20058;-83
2021/12/19 05:30:13;;;;;;;19.20;5.13;;;7.50;99.90;;;;;;4861788;29;20057;-83
2021/12/19 05:32:40;;;;;;;22.50;5.78;;;7.40;99.90;;;;;;4863068;29;20049;-83
2021/12/19 05:35:08;;;;;;;18.08;4.95;;;7.40;99.90;;;;;;4863206;29;20057;-83
2021/12/19 05:45:46;;;;;;;16.02;4.07;;;7.50;99.90;;;;;;4862963;29;20058;-85
2021/12/19 05:48:12;;;;;;;13.48;3.65;;;7.50;99.90;;;;;;4862888;29;20121;-84
2021/12/19 05:50:39;;;;;;;16.23;4.28;;;7.50;99.90;;;;;;4863110;29;20084;-84
2021/12/19 05:53:05;;;;;;;15.73;3.58;;;7.60;99.90;;;;;;4862946;29;20069;-84
2021/12/19 05:55:31;;;;;;;13.75;3.08;;;7.60;99.90;;;;;;4862938;29;20046;-84
2021/12/19 05:57:57;;;;;;;10.15;2.97;;;7.60;99.90;;;;;;4862908;29;20056;-84
2021/12/19 06:00:23;;;;;;;13.27;2.70;;;7.60;99.90;;;;;;4862680;29;20446;-84
2021/12/19 06:02:49;;;;;;;15.15;2.45;;;7.60;99.90;;;;;;4863752;29;20045;-84
2021/12/19 06:05:15;;;;;;;9.57;1.95;;;7.60;99.90;;;;;;4863811;29;20101;-84
2021/12/19 06:07:41;;;;;;;10.07;2.33;;;7.50;99.90;;;;;;4862298;29;20409;-84
2021/12/19 06:10:09;;;;;;;8.52;1.67;;;7.60;99.90;;;;;;4862460;29;20054;-84
2021/12/19 06:12:34;;;;;;;11.98;2.05;;;7.50;99.90;;;;;;4862546;29;20053;-84
2021/12/19 06:15:00;;;;;;;14.88;1.75;;;7.50;99.90;;;;;;4862636;29;20068;-84
2021/12/19 06:17:26;;;;;;;15.63;2.40;;;7.40;99.90;;;;;;4862413;29;20053;-84
2021/12/19 06:19:52;;;;;;;14.48;2.33;;;7.40;99.90;;;;;;4862364;29;20060;-84
2021/12/19 06:22:17;;;;;;;19.35;2.50;;;7.40;99.90;;;;;;4863551;29;20046;-84
2021/12/19 06:24:43;;;;;;;13.35;2.13;;;7.40;99.90;;;;;;4862106;29;20066;-84
2021/12/19 06:27:09;;;;;;;9.65;1.90;;;7.50;99.90;;;;;;4862476;29;20132;-84
2021/12/19 06:29:35;;;;;;;21.60;2.83;;;7.50;99.90;;;;;;4862154;29;20077;-84
2021/12/19 06:32:01;;;;;;;17.45;2.78;;;7.50;99.90;;;;;;4862448;29;20505;-84
2021/12/19 06:34:27;;;;;;;14.25;3.40;;;7.40;99.90;;;;;;4862306;29;20101;-85
2021/12/19 06:36:53;;;;;;;17.80;3.35;;;7.50;99.90;;;;;;4862203;29;20054;-85
2021/12/19 06:39:22;;;;;;;12.10;2.35;;;7.50;99.90;;;;;;4861950;29;20049;-83
2021/12/19 06:41:48;;;;;;;22.25;3.17;;;7.50;99.90;;;;;;4861097;29;20054;-83
2021/12/19 06:44:14;;;;;;;18.17;3.50;;;7.60;99.90;;;;;;4861882;29;20056;-83
2021/12/19 06:46:40;;;;;;;21.23;3.47;;;7.60;99.90;;;;;;4861915;29;20086;-83
2021/12/19 06:49:06;;;;;;;21.55;4.47;;;7.60;99.90;;;;;;4862111;29;20041;-83
2021/12/19 06:51:33;;;;;;;15.95;4.40;;;7.60;99.90;;;;;;4861685;29;20065;-83
2021/12/19 06:53:58;;;;;;;16.77;4.07;;;7.60;99.90;;;;;;4861929;29;20057;-83
2021/12/19 06:56:24;;;;;;;13.38;3.38;;;7.60;99.90;;;;;;4861911;29;20420;-83
2021/12/19 06:58:50;;;;;;;23.35;4.70;;;7.60;99.90;;;;;;4861645;29;20064;-83
2021/12/19 07:01:16;;;;;;;14.98;4.25;;;7.60;99.90;;;;;;4861688;29;20215;-83
2021/12/19 07:03:42;;;;;;;17.02;3.72;;;7.60;99.90;;;;;;4861518;29;20053;-83
2021/12/19 07:06:07;;;;;;;14.38;2.95;;;7.70;99.90;;;;;;4866359;29;20140;-83
2021/12/19 07:08:33;;;;;;;16.17;2.70;;;7.70;99.90;;;;;;4881347;29;20456;-83
2021/12/19 07:10:59;;;;;;;16.05;2.90;;;7.70;99.90;;;;;;4864455;29;20461;-83
2021/12/19 07:13:25;;;;;;;15.70;3.10;;;7.70;99.90;;;;;;4864548;29;20056;-83
2021/12/19 07:15:53;;;;;;;12.40;2.10;;;7.70;99.90;;;;;;4881175;29;20132;-83
2021/12/19 07:18:19;;;;;;;8.43;2.13;;;7.70;99.90;;;;;;4864332;29;20056;-83
2021/12/19 07:20:45;;;;;;;11.15;2.60;;;7.70;99.90;;;;;;4864074;29;20053;-83
2021/12/19 07:23:12;;;;;;;15.13;2.97;;;7.70;99.90;;;;;;4864428;29;20060;-83
2021/12/19 07:25:38;;;;;;;18.17;2.97;;;7.70;99.90;;;;;;4864149;29;20053;-83
2021/12/19 07:28:04;;;;;;;14.85;3.45;;;7.70;99.90;;;;;;4864193;29;20060;-83
2021/12/19 07:30:31;;;;;;;13.43;3.25;;;7.70;99.90;;;;;;4864295;29;20053;-83
2021/12/19 07:32:57;;;;;;;13.32;2.92;;;7.70;99.90;;;;;;4864386;29;20052;-83
2021/12/19 07:35:24;;;;;;;16.45;3.20;;;7.70;99.90;;;;;;4863987;29;20056;-83
2021/12/19 07:37:52;;;;;;;18.25;3.05;;;7.70;99.90;;;;;;4880810;29;20045;-83
2021/12/19 07:40:20;;;;;;;16.10;2.50;;;7.70;99.90;;;;;;4880676;29;20401;-83
2021/12/19 07:42:46;;;;;;;20.98;3.10;;;7.70;99.90;;;;;;4863894;29;20057;-83
2021/12/19 07:45:13;;;;;;;14.20;2.58;;;7.70;99.90;;;;;;4880595;29;20045;-84
2021/12/19 07:47:39;;;;;;;16.83;3.17;;;7.70;99.90;;;;;;4880589;29;20045;-83
2021/12/19 07:50:07;;;;;;;27.92;4.85;;;7.70;99.90;;;;;;4863724;29;20485;-83
2021/12/19 07:52:33;;;;;;;10.77;2.00;;;7.70;99.90;;;;;;4863398;29;20457;-83
2021/12/19 07:54:59;;;;;;;13.02;2.47;;;7.70;99.90;;;;;;4863783;29;20524;-83
2021/12/19 07:57:24;;;;;;;16.27;2.45;;;7.70;99.90;;;;;;4863576;29;20450;-83
2021/12/19 07:59:50;;;;;;;13.07;2.60;;;7.60;99.90;;;;;;4880070;29;20494;-83
2021/12/19 08:02:16;;;;;;;18.77;2.22;;;7.70;99.90;;;;;;4862968;29;20490;-83
2021/12/19 08:04:42;;;;;;;9.38;1.77;;;7.70;99.90;;;;;;4862661;29;20132;-84
2021/12/19 08:07:11;;;;;;;10.48;1.95;;;7.70;99.90;;;;;;4863287;29;20057;-84
2021/12/19 08:09:40;;;;;;;10.23;1.60;;;7.70;99.90;;;;;;4880229;29;20052;-84
2021/12/19 08:12:06;;;;;;;11.55;2.42;;;7.80;99.90;;;;;;4863617;29;20116;-83
2021/12/19 08:14:32;;;;;;;12.90;2.30;;;7.70;99.90;;;;;;4863186;29;20053;-84
2021/12/19 08:16:58;;;;;;;18.67;2.65;;;7.80;99.90;;;;;;4879843;29;20499;-84
2021/12/19 08:19:24;;;;;;;12.75;2.50;;;7.70;99.90;;;;;;4863364;29;20056;-84
2021/12/19 08:21:50;;;;;;;15.80;3.10;;;7.70;99.90;;;;;;4863231;29;20080;-84
2021/12/19 08:24:16;;;;;;;15.77;3.45;;;7.70;99.90;;;;;;4863071;29;20083;-83
2021/12/19 08:26:43;;;;;;;12.50;2.40;;;7.70;99.90;;;;;;4863190;29;20049;-83
2021/12/19 08:29:11;;;;;;;13.32;2.10;;;7.60;99.90;;;;;;4863332;29;20064;-83
2021/12/19 08:31:37;;;;;;;17.75;3.15;;;7.70;99.90;;;;;;4857391;29;20049;-82
2021/12/19 08:34:03;;;;;;;14.15;2.85;;;7.70;99.90;;;;;;4850392;29;20387;-83
2021/12/19 08:36:28;;;;;;;12.00;2.50;;;7.70;99.90;;;;;;4861262;29;20041;-80
2021/12/19 08:38:54;;;;;;;13.02;2.63;;;7.70;99.90;;;;;;4844303;29;20054;-81
2021/12/19 08:41:20;;;;;;;13.18;2.78;;;7.70;99.90;;;;;;4860922;29;20049;-82
2021/12/19 08:43:46;;;;;;;10.57;2.30;;;7.70;99.90;;;;;;4844393;29;20053;-83
2021/12/19 08:46:12;;;;;;;19.45;4.95;;;7.70;99.90;;;;;;4844172;29;20058;-83
2021/12/19 08:48:39;;;;;;;17.23;3.20;;;7.80;99.90;;;;;;4844255;29;20049;-83
2021/12/19 08:51:05;;;;;;;13.95;3.58;;;7.80;99.90;;;;;;4844622;29;20072;-83
2021/12/19 08:53:31;;;;;;;16.00;2.90;;;7.80;99.90;;;;;;4844240;29;20089;-83
2021/12/19 08:55:57;;;;;;;16.05;2.47;;;7.80;99.90;;;;;;4844163;29;20073;-83
2021/12/19 08:58:23;;;;;;;10.70;2.30;;;7.90;99.90;;;;;;4844450;29;20057;-83
2021/12/19 09:00:48;;;;;;;15.80;2.60;;;7.90;99.90;;;;;;4844179;29;20482;-83
2021/12/19 09:03:15;;;;;;;20.35;3.03;;;7.90;99.90;;;;;;4844263;29;20217;-84
2021/12/19 09:05:41;;;;;;;15.57;2.33;;;7.90;99.90;;;;;;4847055;29;20523;-83
2021/12/19 09:08:06;;;;;;;16.10;3.15;;;7.90;99.90;;;;;;4864262;29;20536;-83
2021/12/19 09:10:33;;;;;;;21.10;3.40;;;7.90;99.90;;;;;;4847988;29;20061;-83
2021/12/19 09:12:59;;;;;;;29.17;3.95;;;7.90;99.90;;;;;;4847998;29;20066;-83
2021/12/19 09:15:25;;;;;;;26.50;5.32;;;7.90;99.90;;;;;;4847652;29;20053;-83
2021/12/19 09:17:53;;;;;;;23.17;3.53;;;7.90;99.90;;;;;;4864327;29;20068;-83
2021/12/19 09:20:19;;;;;;;20.95;3.15;;;7.90;99.90;;;;;;4847304;29;20057;-84
2021/12/19 09:22:44;;;;;;;15.10;3.20;;;7.90;99.90;;;;;;4847755;29;20049;-83
2021/12/19 09:25:10;;;;;;;17.60;3.20;;;7.90;99.90;;;;;;4864071;29;20057;-83
2021/12/19 09:27:36;;;;;;;17.55;3.50;;;7.90;99.90;;;;;;4864111;29;20045;-83
2021/12/19 09:30:04;;;;;;;15.70;3.05;;;7.90;99.90;;;;;;4847500;29;20387;-83
2021/12/19 09:32:29;;;;;;;24.70;5.10;;;8.00;99.90;;;;;;4864262;29;20045;-83
2021/12/19 09:34:55;;;;;;;16.33;3.35;;;8.00;99.90;;;;;;4847386;29;20050;-83
2021/12/19 09:37:21;;;;;;;18.52;2.85;;;8.00;99.90;;;;;;4863782;29;20068;-84
2021/12/19 09:39:49;;;;;;;19.92;2.22;;;8.10;99.90;;;;;;4847137;29;20055;-82
2021/12/19 09:42:19;;;;;;;18.80;3.22;;;8.10;99.90;;;;;;4846951;29;20504;-83
2021/12/19 09:44:45;;;;;;;9.13;2.50;;;8.10;99.90;;;;;;4847318;29;20109;-83
2021/12/19 09:47:10;;;;;;;18.30;2.67;;;8.00;99.90;;;;;;4863645;29;20191;-83
2021/12/19 09:49:36;;;;;;;15.60;2.38;;;8.00;99.90;;;;;;4847177;29;20050;-83
2021/12/19 09:52:08;;;;;;;18.67;2.78;;;8.00;99.90;;;;;;4847658;29;20094;-83
2021/12/19 09:54:37;;;;;;;21.05;3.28;;;8.00;99.90;;;;;;4846949;29;20050;-83
2021/12/19 09:57:03;;;;;;;9.18;2.03;;;8.00;99.90;;;;;;4863758;29;20077;-83
2021/12/19 09:59:29;;;;;;;9.75;2.10;;;8.00;99.90;;;;;;4846954;29;20049;-83
2021/12/19 10:01:55;;;;;;;19.30;2.35;;;8.00;99.90;;;;;;4863723;29;20046;-83
2021/12/19 10:04:47;;;;;;;11.13;2.55;;;8.00;99.90;;;;;;4846495;29;20076;-82
2021/12/19 10:07:14;;;;;;;21.55;3.28;;;8.00;99.90;;;;;;4844908;29;20494;-88
2021/12/19 10:09:49;;;;;;;16.73;2.42;;;8.00;99.90;;;;;;4846756;29;20053;-85
2021/12/19 10:12:36;;;;;;;10.38;2.03;;;8.00;99.90;;;;;;4863295;29;20490;-82
2021/12/19 10:15:25;;;;;;;19.17;3.80;;;8.10;99.90;;;;;;4846312;29;20113;-83
2021/12/19 10:18:08;;;;;;;28.60;3.72;;;8.00;99.90;;;;;;4861881;29;20049;-82
2021/12/19 10:20:46;;;;;;;13.20;2.20;;;8.00;99.90;;;;;;4846990;29;20057;-82
2021/12/19 10:23:23;;;;;;;13.88;2.45;;;8.00;99.90;;;;;;4846568;29;20065;-84
2021/12/19 10:26:15;;;;;;;13.00;1.90;;;8.00;99.90;;;;;;4846332;29;20064;-82
2021/12/19 10:28:50;;;;;;;13.73;2.65;;;8.00;99.90;;;;;;4844926;29;20510;-86
2021/12/19 10:31:16;;;;;;;18.63;3.42;;;8.10;99.90;;;;;;4846652;29;20049;-84
2021/12/19 10:33:42;;;;;;;11.32;2.70;;;8.00;99.90;;;;;;4846368;29;20383;-84
2021/12/19 10:36:09;;;;;;;14.30;2.58;;;8.00;99.90;;;;;;4846248;29;20050;-85
2021/12/19 10:38:43;;;;;;;22.05;5.13;;;8.00;99.90;;;;;;4846431;29;20065;-85
2021/12/19 10:41:16;;;;;;;16.23;2.67;;;8.00;99.90;;;;;;4846096;29;20486;-84
2021/12/19 10:44:02;;;;;;;;;;;8.10;99.90;;;;;;4846491;29;20057;-84
2021/12/19 10:46:34;;;;;;;17.77;2.50;;;8.00;99.90;;;;;;4846368;29;19924;-83
2021/12/19 10:49:01;;;;;;;19.90;4.43;;;8.10;99.90;;;;;;4846425;29;20067;-83
2021/12/19 10:51:30;;;;;;;29.40;4.40;;;8.10;99.90;;;;;;4846249;29;20058;-83
2021/12/19 10:54:00;;;;;;;19.13;3.95;;;8.00;99.90;;;;;;4862567;29;20049;-83
2021/12/19 10:56:35;;;;;;;22.30;4.47;;;8.00;99.90;;;;;;4845965;29;20516;-83
2021/12/19 10:59:14;;;;;;;17.83;4.43;;;8.10;99.90;;;;;;4845807;29;20521;-83
2021/12/19 11:01:44;;;;;;;15.45;2.92;;;8.20;99.90;;;;;;4862766;29;20052;-83
2021/12/19 11:04:11;;;;;;;13.93;3.08;;;8.20;99.90;;;;;;4862480;29;20080;-83
2021/12/19 11:06:47;;;;;;;22.90;3.95;;;8.20;99.90;;;;;;4845753;29;20081;-84
2021/12/19 11:09:19;;;;;;;13.00;3.35;;;8.20;99.90;;;;;;4845495;29;20053;-84
2021/12/19 11:11:55;;;;;;;21.15;3.30;;;8.20;99.90;;;;;;4845850;29;20382;-84
2021/12/19 11:14:33;;;;;;;17.90;2.50;;;8.20;99.90;;;;;;4845665;29;20064;-84
2021/12/19 11:17:03;;;;;;;18.98;3.28;;;8.30;99.90;;;;;;4845623;29;20145;-83
2021/12/19 11:19:29;;;;;;;13.63;2.42;;;8.30;99.90;;;;;;4845777;29;20061;-83
2021/12/19 11:21:55;;;;;;;29.63;3.10;;;8.30;99.90;;;;;;4862059;29;20038;-83
2021/12/19 11:24:23;;;;;;;14.07;3.45;;;8.30;99.90;;;;;;4845548;29;20059;-85
2021/12/19 11:26:54;;;;;;;20.40;3.67;;;8.40;99.90;;;;;;4844983;29;20065;-85
2021/12/19 11:29:20;;;;;;;31.73;4.68;;;8.30;99.90;;;;;;4845545;29;20165;-84
2021/12/19 11:31:50;;;;;;;24.35;3.60;;;8.30;99.90;;;;;;4862145;29;20124;-83
2021/12/19 11:34:22;;;;;;;31.33;4.03;;;8.30;99.90;;;;;;4862317;29;20052;-84
2021/12/19 11:37:06;;;;;;;21.70;4.80;;;8.30;99.90;;;;;;4845310;29;20063;-85
2021/12/19 11:39:34;;;;;;;27.33;4.05;;;8.30;99.90;;;;;;4845438;29;20049;-84
2021/12/19 11:42:11;;;;;;;19.77;2.75;;;8.30;99.90;;;;;;4845488;29;20056;-84
2021/12/19 11:44:54;;;;;;;14.88;3.30;;;8.30;99.90;;;;;;4844890;29;20053;-84
2021/12/19 11:47:35;;;;;;;17.63;3.25;;;8.40;99.90;;;;;;4845199;29;20068;-84
2021/12/19 11:50:21;;;;;;;30.95;3.33;;;8.40;99.90;;;;;;4844794;29;20216;-83
2021/12/19 11:52:47;;;;;;;19.77;3.70;;;8.50;99.90;;;;;;4845132;29;20045;-84
2021/12/19 11:55:23;;;;;;;12.13;3.00;;;8.50;99.90;;;;;;4845010;29;20124;-84
2021/12/19 11:58:07;;;;;;;13.68;3.05;;;8.50;99.90;;;;;;4862344;29;20053;-84
2021/12/19 12:00:40;;;;;;;16.83;3.30;;;8.50;99.90;;;;;;4844829;29;20053;-84
2021/12/19 12:03:12;;;;;;;20.30;4.45;;;8.50;99.90;;;;;;4844821;29;20053;-83
2021/12/19 12:05:43;;;;;;;18.17;4.82;;;8.40;99.90;;;;;;4844646;29;20064;-84
2021/12/19 12:08:13;;;;;;;22.48;4.43;;;8.50;99.90;;;;;;4861366;29;20505;-84
2021/12/19 12:10:48;;;;;;;18.25;2.72;;;8.50;99.90;;;;;;4861406;29;20142;-83
2021/12/19 12:13:23;;;;;;;18.40;2.63;;;8.50;99.90;;;;;;4861413;29;20129;-85
2021/12/19 12:15:52;;;;;;;10.35;2.40;;;8.50;99.90;;;;;;4844366;29;20427;-85
2021/12/19 12:18:55;;;;;;;18.40;2.47;;;8.50;99.90;;;;;;4845316;29;20077;-86
2021/12/19 12:21:34;;;;;;;20.85;3.33;;;8.50;99.90;;;;;;4849393;29;20064;-87
2021/12/19 12:24:05;;;;;;;21.58;4.15;;;8.50;99.90;;;;;;4844515;29;20050;-86
2021/12/19 12:26:41;;;;;;;22.67;3.92;;;8.50;99.90;;;;;;4844414;29;20085;-87
2021/12/19 12:29:08;;;;;;;26.33;4.32;;;8.50;99.90;;;;;;4844609;29;20129;-87
2021/12/19 12:31:35;;;;;;;11.15;2.28;;;8.50;99.90;;;;;;4844491;29;20053;-86
2021/12/19 12:34:02;;;;;;;23.42;4.20;;;8.50;99.90;;;;;;4844667;29;20494;-88
2021/12/19 12:36:27;;;;;;;18.50;3.45;;;8.50;99.90;;;;;;4844347;29;20045;-87
2021/12/19 12:38:54;;;;;;;13.13;2.47;;;8.50;99.90;;;;;;4843555;29;20064;-87
2021/12/19 12:43:55;;;;;;;17.33;3.58;;;8.50;99.90;;;;;;4844453;29;20057;-87
2021/12/19 12:46:22;;;;;;;21.02;3.28;;;8.50;99.90;;;;;;4844559;29;20061;-87
2021/12/19 12:49:02;;;;;;;15.30;2.95;;;8.50;99.90;;;;;;4845150;29;20045;-86
2021/12/19 12:51:32;;;;;;;15.73;3.95;;;8.50;99.90;;;;;;4850636;29;20132;-87
2021/12/19 12:54:05;;;;;;;23.42;3.33;;;8.50;99.90;;;;;;4843843;29;20078;-86
2021/12/19 12:56:39;;;;;;;20.08;3.55;;;8.50;99.90;;;;;;4844524;29;20491;-86
2021/12/19 12:59:06;;;;;;;24.77;3.70;;;8.50;99.90;;;;;;4846810;29;20053;-87
2021/12/19 13:01:43;;;;;;;18.48;2.83;;;8.50;99.90;;;;;;4860655;29;20395;-87
2021/12/19 13:04:19;;;;;;;28.88;4.22;;;8.50;99.90;;;;;;4860340;29;20367;-86
2021/12/19 13:07:02;;;;;;;18.17;3.72;;;8.50;99.90;;;;;;4860727;29;20141;-86
2021/12/19 13:09:44;;;;;;;21.92;4.25;;;8.50;99.90;;;;;;4844142;29;20450;-85
2021/12/19 13:12:18;;;;;;;28.65;5.57;;;8.50;99.90;;;;;;4844108;29;20129;-85
2021/12/19 13:15:02;;;;;;;17.35;3.05;;;8.50;99.90;;;;;;4843845;29;20554;-85
2021/12/19 13:17:48;;;;;;;16.92;3.38;;;8.50;99.90;;;;;;4844290;29;20060;-85
2021/12/19 13:20:24;;;;;;;17.35;2.25;;;8.60;99.90;;;;;;4870823;29;20119;-85
2021/12/19 13:22:52;;;;;;;11.98;1.60;;;8.60;99.90;;;;;;4860640;29;20098;-85
2021/12/19 13:25:26;;;;;;;19.27;2.33;;;8.50;99.90;;;;;;4860485;29;20136;-85
2021/12/19 13:27:55;;;;;;;12.48;1.67;;;8.50;99.90;;;;;;4860828;29;20065;-85
2021/12/19 13:30:24;;;;;;;9.68;1.85;;;8.50;99.90;;;;;;4871102;29;20114;-85
2021/12/19 13:32:53;;;;;;;11.68;1.67;;;8.40;99.90;;;;;;4860733;29;20042;-85
2021/12/19 13:35:27;;;;;;;10.35;1.13;;;8.40;99.90;;;;;;4843650;29;20049;-85
2021/12/19 13:37:56;;;;;;;13.98;1.77;;;8.40;99.90;;;;;;4844129;29;20045;-86
2021/12/19 13:40:28;;;;;;;11.52;2.25;;;8.40;99.90;;;;;;4843859;29;20049;-85
2021/12/19 13:43:01;;;;;;;10.82;1.42;;;8.30;99.90;;;;;;4843785;29;20089;-87
2021/12/19 13:45:31;;;;;;;9.65;2.00;;;8.30;99.90;;;;;;4843829;29;20068;-86
2021/12/19 13:48:00;;;;;;;10.30;2.08;;;8.20;99.90;;;;;;4843824;29;20129;-86
2021/12/19 13:50:27;;;;;;;8.57;1.55;;;8.30;99.90;;;;;;4871903;29;20132;-87
2021/12/19 13:52:53;;;;;;;13.60;1.70;;;8.30;99.90;;;;;;4847065;29;20486;-86
2021/12/19 13:55:19;;;;;;;15.98;2.15;;;8.30;99.90;;;;;;4847094;29;20056;-86
2021/12/19 13:57:45;;;;;;;11.82;2.13;;;8.30;99.90;;;;;;4846959;29;20046;-86